Time;durP1;ratioP1;P1;durP2;ratioP2;P2;SDS_P1;SDS_P2;PMS_P1;PMS_P2;Temp;Humidity;BMP_temperature;BMP_pressure;BME280_temperature;BME280_humidity;BME280_pressure;Samples;Min_cycle;Max_cycle;Signal;HPM_P1;HPM_P2
2023/08/22 00:02:51;;;;;;;11.55;3.95;;;;;;;21.13;100.00;101025.50;8366882;28;20041;-61
2023/08/22 00:06:51;;;;;;;5.82;4.25;;;;;;;21.25;100.00;101030.31;8362871;28;20158;-60
2023/08/22 00:10:52;;;;;;;14.27;4.43;;;;;;;21.53;99.19;101030.31;8366909;28;20032;-60
2023/08/22 00:14:52;;;;;;;10.45;4.18;;;;;;;21.38;100.00;101030.41;8377139;28;20044;-60
2023/08/22 00:18:53;;;;;;;8.60;3.97;;;;;;;21.42;98.48;101014.38;8390059;28;20044;-60
2023/08/22 00:22:53;;;;;;;8.48;4.18;;;;;;;21.49;97.33;101020.78;8393349;28;20040;-62
2023/08/22 00:26:55;;;;;;;9.20;4.38;;;;;;;21.44;98.84;101017.78;8393039;28;20387;-62
2023/08/22 00:30:55;;;;;;;8.20;3.80;;;;;;;21.33;100.00;101010.91;8391493;28;20033;-62
2023/08/22 00:34:56;;;;;;;8.13;4.28;;;;;;;21.21;100.00;101017.13;8392958;28;20032;-62
2023/08/22 00:38:58;;;;;;;11.52;4.53;;;;;;;20.91;100.00;100999.03;8392502;28;20464;-62
2023/08/22 00:42:59;;;;;;;12.52;4.90;;;;;;;21.08;100.00;101006.00;8392351;28;20040;-62
2023/08/22 00:47:00;;;;;;;9.88;3.90;;;;;;;21.11;100.00;101003.69;8391566;28;20533;-62
2023/08/22 00:51:03;;;;;;;9.23;4.28;;;;;;;21.30;100.00;101013.19;8389768;28;20117;-62
2023/08/22 00:55:04;;;;;;;6.47;4.00;;;;;;;21.35;99.95;101005.22;8388209;28;20044;-62
2023/08/22 00:59:05;;;;;;;13.10;3.28;;;;;;;21.23;100.00;101004.88;8391749;28;20498;-62
2023/08/22 01:03:06;;;;;;;10.30;3.85;;;;;;;21.13;100.00;101003.50;8391917;28;20079;-62
2023/08/22 01:07:22;;;;;;;11.80;3.92;;;;;;;20.84;100.00;100995.38;8392129;28;20431;-62
2023/08/22 01:11:37;;;;;;;9.07;3.60;;;;;;;20.77;100.00;100994.44;8388179;28;20302;-62
2023/08/22 01:15:40;;;;;;;9.77;3.88;;;;;;;20.74;100.00;100997.59;8387886;28;20450;-62
2023/08/22 01:19:41;;;;;;;9.38;4.07;;;;;;;21.07;100.00;100994.16;8389895;28;20044;-62
2023/08/22 01:23:41;;;;;;;12.02;4.38;;;;;;;21.03;100.00;100989.25;8390652;28;20040;-62
2023/08/22 01:27:54;;;;;;;7.82;4.25;;;;;;;21.07;100.00;100993.28;8391730;28;20059;-62
2023/08/22 01:32:18;;;;;;;13.70;4.93;;;;;;;20.99;100.00;100996.19;8388635;28;20044;-62
2023/08/22 01:36:20;;;;;;;11.63;5.00;;;;;;;20.90;100.00;100989.94;8390106;28;20059;-62
2023/08/22 01:40:23;;;;;;;10.43;3.85;;;;;;;20.62;100.00;100999.97;8390501;28;20125;-62
2023/08/22 01:44:24;;;;;;;9.07;4.03;;;;;;;20.43;100.00;100999.75;8389595;28;20058;-62
2023/08/22 01:48:24;;;;;;;9.32;3.78;;;;;;;20.70;100.00;100990.75;8390916;28;20032;-63
2023/08/22 01:52:25;;;;;;;7.88;3.80;;;;;;;20.58;100.00;100984.91;8390617;28;20461;-63
2023/08/22 01:56:26;;;;;;;4.95;3.80;;;;;;;20.27;100.00;100978.84;8390958;28;20041;-62
2023/08/22 02:00:26;;;;;;;10.15;3.50;;;;;;;20.06;100.00;100975.16;8390104;28;20064;-62
2023/08/22 02:04:27;;;;;;;11.43;4.32;;;;;;;19.86;100.00;100963.03;8389934;28;20607;-62
2023/08/22 02:08:27;;;;;;;19.25;5.05;;;;;;;19.91;100.00;100966.06;8390400;28;20039;-62
2023/08/22 02:12:28;;;;;;;7.47;4.53;;;;;;;20.18;100.00;100971.75;8390151;28;20043;-62
2023/08/22 02:16:28;;;;;;;11.18;4.70;;;;;;;20.41;100.00;100974.38;8390436;28;20044;-62
2023/08/22 02:20:29;;;;;;;10.95;5.25;;;;;;;20.26;100.00;100981.78;8389945;28;20121;-62
2023/08/22 02:24:31;;;;;;;9.93;4.20;;;;;;;19.94;100.00;100982.16;8389219;28;20406;-62
2023/08/22 02:28:31;;;;;;;11.45;5.30;;;;;;;19.78;100.00;100977.69;8390061;28;20063;-62
2023/08/22 02:32:32;;;;;;;14.90;6.15;;;;;;;19.87;100.00;100976.56;8389347;28;20041;-62
2023/08/22 02:36:33;;;;;;;16.23;6.30;;;;;;;19.92;100.00;100971.38;8389860;28;20570;-62
2023/08/22 02:40:34;;;;;;;11.20;5.95;;;;;;;19.98;100.00;100972.50;8389313;28;20173;-62
2023/08/22 02:44:34;;;;;;;9.48;6.53;;;;;;;19.83;100.00;100977.13;8388169;28;20037;-64
2023/08/22 02:48:35;;;;;;;11.30;6.28;;;;;;;19.85;100.00;100973.16;8389557;28;20035;-63
2023/08/22 02:52:35;;;;;;;14.15;6.82;;;;;;;19.83;100.00;100963.41;8387041;28;20047;-64
2023/08/22 02:56:37;;;;;;;12.35;6.05;;;;;;;19.96;100.00;100963.59;8387389;28;20052;-64
2023/08/22 03:00:38;;;;;;;9.75;5.72;;;;;;;19.84;100.00;100965.97;8387265;28;20043;-64
2023/08/22 03:04:38;;;;;;;12.00;6.03;;;;;;;19.86;100.00;100971.25;8389283;28;20413;-64
2023/08/22 03:08:39;;;;;;;10.27;6.10;;;;;;;19.71;100.00;100964.91;8389323;28;20086;-64
2023/08/22 03:12:39;;;;;;;12.77;6.20;;;;;;;19.37;100.00;100963.56;8388852;28;20032;-64
2023/08/22 03:16:41;;;;;;;12.13;6.85;;;;;;;19.38;100.00;100968.03;8388680;28;20041;-64
2023/08/22 03:20:42;;;;;;;10.57;6.40;;;;;;;19.48;100.00;100974.09;8375976;28;20125;-64
2023/08/22 03:24:42;;;;;;;11.88;6.40;;;;;;;19.51;100.00;100974.75;8371808;28;20490;-64
2023/08/22 03:28:43;;;;;;;14.63;7.20;;;;;;;19.55;100.00;100968.72;8371945;28;20032;-64
2023/08/22 03:32:44;;;;;;;14.90;7.25;;;;;;;19.44;100.00;100969.16;8364178;28;20037;-63
2023/08/22 03:36:45;;;;;;;11.75;6.03;;;;;;;19.58;100.00;100960.09;8378610;28;20494;-64
2023/08/22 03:40:48;;;;;;;9.85;5.53;;;;;;;19.63;100.00;100970.47;8371922;28;20564;-64
2023/08/22 03:44:48;;;;;;;10.95;4.95;;;;;;;19.44;100.00;100959.03;8371900;28;20040;-64
2023/08/22 03:48:49;;;;;;;11.55;5.50;;;;;;;19.58;100.00;100959.25;8372254;28;20037;-64
2023/08/22 03:52:51;;;;;;;12.73;5.78;;;;;;;19.58;100.00;100959.25;8371479;28;20043;-62
2023/08/22 03:56:51;;;;;;;10.43;5.28;;;;;;;19.24;100.00;100952.34;8372123;28;20131;-62
2023/08/22 04:01:00;;;;;;;9.95;6.53;;;;;;;18.94;100.00;100960.69;8371247;28;20040;-62
2023/08/22 04:05:01;;;;;;;10.93;5.93;;;;;;;19.05;100.00;100969.31;8372925;28;20125;-59
2023/08/22 04:09:01;;;;;;;17.73;6.88;;;;;;;19.29;100.00;100965.53;8373441;28;20049;-59
2023/08/22 04:13:03;;;;;;;12.52;6.60;;;;;;;19.35;100.00;100971.13;8371759;28;20067;-60
2023/08/22 04:17:03;;;;;;;9.95;6.07;;;;;;;19.33;100.00;100964.97;8362045;28;20044;-60
2023/08/22 04:21:04;;;;;;;10.73;6.00;;;;;;;19.08;100.00;100974.41;8370966;28;20140;-60
2023/08/22 04:25:05;;;;;;;12.93;6.15;;;;;;;19.06;100.00;100968.25;8380796;28;20051;-62
2023/08/22 04:29:05;;;;;;;16.63;6.95;;;;;;;18.98;100.00;100968.34;8372409;28;20037;-62
2023/08/22 04:33:06;;;;;;;6.85;5.70;;;;;;;18.69;100.00;100968.22;8366292;28;20052;-62
2023/08/22 04:37:07;;;;;;;11.05;6.63;;;;;;;18.69;100.00;100968.22;8378456;28;20538;-62
2023/08/22 04:41:08;;;;;;;14.00;7.25;;;;;;;18.93;100.00;100975.41;8369024;28;20060;-62
2023/08/22 04:45:20;;;;;;;15.98;6.72;;;;;;;19.06;100.00;100965.53;8374507;28;20055;-62
2023/08/22 04:49:21;;;;;;;16.65;6.68;;;;;;;18.95;100.00;100965.97;8372581;28;20507;-62
2023/08/22 04:53:21;;;;;;;13.90;6.70;;;;;;;18.97;100.00;100969.38;8376385;28;20033;-62
2023/08/22 04:57:23;;;;;;;14.15;6.80;;;;;;;19.12;100.00;100970.25;8380029;28;20560;-62
2023/08/22 05:01:24;;;;;;;14.35;6.22;;;;;;;19.32;100.00;100970.63;8374327;28;20044;-62
2023/08/22 05:05:25;;;;;;;9.15;6.53;;;;;;;19.57;100.00;100968.53;8379747;28;20138;-65
2023/08/22 05:09:25;;;;;;;10.02;5.55;;;;;;;19.52;100.00;100968.22;8356981;28;20049;-64
2023/08/22 05:13:26;;;;;;;14.20;6.20;;;;;;;19.42;100.00;100976.72;8372630;28;20048;-64
2023/08/22 05:17:26;;;;;;;12.77;7.30;;;;;;;19.40;100.00;100973.31;8406329;28;20044;-64
2023/08/22 05:21:27;;;;;;;14.70;6.75;;;;;;;19.41;100.00;100972.25;8376695;28;20127;-64
2023/08/22 05:25:27;;;;;;;13.65;7.00;;;;;;;19.52;100.00;100972.66;8376857;28;20036;-64
2023/08/22 05:29:28;;;;;;;14.30;6.55;;;;;;;19.39;100.00;100977.94;8370211;28;20045;-64
2023/08/22 05:33:29;;;;;;;12.80;7.57;;;;;;;19.36;100.00;100985.69;8366875;28;20044;-64
2023/08/22 05:37:29;;;;;;;12.52;6.20;;;;;;;19.86;100.00;100979.50;8355170;28;20056;-65
2023/08/22 05:41:30;;;;;;;15.77;7.10;;;;;;;20.23;100.00;100984.91;8365747;28;20040;-65
2023/08/22 05:45:32;;;;;;;13.38;6.57;;;;;;;20.74;100.00;100981.09;8370035;28;20051;-64
2023/08/22 05:49:33;;;;;;;9.60;6.22;;;;;;;20.86;100.00;100979.53;8367445;28;20032;-64
2023/08/22 05:53:34;;;;;;;12.95;5.97;;;;;;;21.03;100.00;100986.50;8368216;28;20100;-65
2023/08/22 05:57:35;;;;;;;12.80;6.10;;;;;;;21.02;100.00;100982.88;8374787;28;20040;-65
2023/08/22 06:01:35;;;;;;;11.93;6.38;;;;;;;21.18;100.00;100985.38;8376052;28;20041;-58
2023/08/22 06:05:38;;;;;;;8.63;6.05;;;;;;;21.34;100.00;100982.34;8374810;28;20044;-58
2023/08/22 06:09:41;;;;;;;14.02;6.53;;;;;;;21.38;100.00;100986.41;8375985;28;20103;-59
2023/08/22 06:13:43;;;;;;;9.95;5.93;;;;;;;21.34;100.00;100989.75;8375163;28;20044;-63
2023/08/22 06:17:46;;;;;;;12.10;6.82;;;;;;;21.38;100.00;100980.88;8374040;28;20517;-62
2023/08/22 06:21:46;;;;;;;14.52;7.15;;;;;;;21.61;99.64;100997.16;8373888;28;20410;-63
2023/08/22 06:25:48;;;;;;;10.68;6.35;;;;;;;22.03;97.09;101005.31;8373285;28;20123;-62
2023/08/22 06:29:50;;;;;;;12.40;6.88;;;;;;;22.23;95.70;101003.53;8364771;28;20065;-63
2023/08/22 06:33:53;;;;;;;14.02;7.20;;;;;;;22.25;95.11;101000.56;8372857;28;20037;-63
2023/08/22 06:37:54;;;;;;;16.80;7.15;;;;;;;22.17;93.34;100996.06;8365470;28;20037;-63
2023/08/22 06:41:54;;;;;;;18.63;7.22;;;;;;;22.27;94.43;100992.94;8372693;28;20083;-63
2023/08/22 06:45:58;;;;;;;18.02;7.07;;;;;;;22.28;94.98;100995.50;8375231;28;20380;-62
2023/08/22 06:49:59;;;;;;;19.77;7.88;;;;;;;22.71;91.44;100996.97;8372953;28;20084;-63
2023/08/22 06:53:59;;;;;;;14.45;7.15;;;;;;;23.07;89.42;101007.66;8377003;28;20044;-63
2023/08/22 06:58:00;;;;;;;27.95;7.13;;;;;;;23.11;88.12;100998.75;8372748;28;20048;-63
2023/08/22 07:02:00;;;;;;;14.15;7.18;;;;;;;23.15;86.85;101011.06;8369364;28;20037;-63
2023/08/22 07:06:01;;;;;;;18.25;7.60;;;;;;;23.48;88.10;101007.53;8379341;28;20490;-63
2023/08/22 07:10:03;;;;;;;18.25;7.47;;;;;;;23.51;88.71;101012.63;8368650;28;20048;-63
2023/08/22 07:14:05;;;;;;;20.15;7.88;;;;;;;23.71;85.41;101013.47;8372895;28;20044;-63
2023/08/22 07:18:05;;;;;;;17.15;7.10;;;;;;;24.17;86.34;101022.56;8376635;28;20037;-63
2023/08/22 07:22:06;;;;;;;22.38;6.85;;;;;;;24.44;84.80;101011.22;8368791;28;20576;-63
2023/08/22 07:26:07;;;;;;;17.48;7.32;;;;;;;24.55;82.56;101012.44;8372044;28;20047;-63
2023/08/22 07:30:07;;;;;;;17.40;6.38;;;;;;;24.94;81.49;101009.47;8368472;28;20094;-63
2023/08/22 07:34:08;;;;;;;20.50;7.63;;;;;;;25.37;78.03;101007.72;8367364;28;20399;-63
2023/08/22 07:38:08;;;;;;;16.00;7.53;;;;;;;25.72;75.33;101022.78;8372185;28;20048;-63
2023/08/22 07:42:09;;;;;;;18.00;8.68;;;;;;;25.19;75.91;101015.94;8372358;28;20131;-63
2023/08/22 07:46:10;;;;;;;15.40;7.13;;;;;;;25.01;77.19;101024.16;8377807;28;20040;-63
2023/08/22 07:50:10;;;;;;;17.42;7.50;;;;;;;25.08;77.72;101027.72;8377119;28;20049;-63
2023/08/22 07:54:11;;;;;;;14.48;7.00;;;;;;;24.85;78.98;101035.72;8377592;28;20072;-63
2023/08/22 07:58:13;;;;;;;20.75;7.90;;;;;;;24.99;78.33;101040.13;8376305;28;20036;-62
2023/08/22 08:02:13;;;;;;;19.13;6.63;;;;;;;25.19;77.29;101040.00;8395332;28;20510;-62
2023/08/22 08:06:14;;;;;;;22.40;7.00;;;;;;;25.25;76.13;101039.13;8381612;28;20483;-62
2023/08/22 08:10:15;;;;;;;24.60;7.32;;;;;;;25.52;75.71;101038.72;8377417;28;20047;-63
2023/08/22 08:14:15;;;;;;;18.85;6.18;;;;;;;25.70;73.61;101044.31;8377536;28;20045;-63
2023/08/22 08:18:16;;;;;;;17.40;6.95;;;;;;;25.93;71.18;101041.78;8377330;28;20098;-63
2023/08/22 08:22:16;;;;;;;16.40;5.68;;;;;;;26.15;72.28;101054.16;8377161;28;20069;-62
2023/08/22 08:26:17;;;;;;;18.80;5.40;;;;;;;26.16;70.46;101050.31;8376733;28;20128;-63
2023/08/22 08:30:17;;;;;;;15.32;4.97;;;;;;;26.25;68.13;101043.38;8376517;28;20494;-63
2023/08/22 08:34:18;;;;;;;13.68;5.45;;;;;;;26.37;70.91;101058.19;8375044;28;20123;-60
2023/08/22 08:38:18;;;;;;;11.55;4.75;;;;;;;26.29;71.36;101050.16;8376297;28;20051;-59
2023/08/22 08:42:19;;;;;;;14.88;4.90;;;;;;;26.49;69.29;101061.88;8375958;28;20064;-59
2023/08/22 08:46:20;;;;;;;13.38;4.35;;;;;;;27.04;68.25;101053.56;8377233;28;20044;-58
2023/08/22 08:50:21;;;;;;;9.20;4.07;;;;;;;27.20;66.73;101058.44;8375721;28;20037;-59
2023/08/22 08:54:22;;;;;;;12.65;4.05;;;;;;;27.42;66.87;101062.41;8374787;28;20037;-58
2023/08/22 08:58:23;;;;;;;11.40;4.65;;;;;;;27.21;66.94;101068.44;8375884;28;20037;-60
2023/08/22 09:02:23;;;;;;;14.45;4.75;;;;;;;27.13;66.75;101072.41;8377338;28;20099;-56
2023/08/22 09:06:24;;;;;;;10.75;4.53;;;;;;;26.93;66.86;101068.22;8375841;28;20037;-57
2023/08/22 09:10:34;;;;;;;13.60;4.32;;;;;;;26.95;66.44;101054.97;8379594;28;20056;-57
2023/08/22 09:14:40;;;;;;;9.73;3.38;;;;;;;27.35;65.78;101053.34;8372283;28;20047;-56
2023/08/22 09:18:42;;;;;;;16.20;4.32;;;;;;;27.66;63.79;101055.81;8400881;28;20035;-56
2023/08/22 09:22:42;;;;;;;16.08;3.10;;;;;;;27.84;64.66;101061.28;8391188;28;20036;-56
2023/08/22 09:26:47;;;;;;;12.65;3.70;;;;;;;27.93;63.17;101065.44;8391812;28;20081;-57
2023/08/22 09:30:49;;;;;;;11.32;3.50;;;;;;;28.61;66.85;101063.72;8391214;28;20043;-56
2023/08/22 09:34:53;;;;;;;11.90;3.28;;;;;;;28.92;64.05;101065.22;8391254;28;20037;-59
2023/08/22 09:38:56;;;;;;;4.55;2.22;;;;;;;29.19;61.23;101056.06;8389864;28;20037;-59
2023/08/22 09:42:56;;;;;;;8.10;3.13;;;;;;;29.31;59.06;101062.44;8389261;28;20037;-59
2023/08/22 09:46:57;;;;;;;11.25;3.22;;;;;;;29.85;58.12;101064.53;8391064;28;20185;-65
2023/08/22 09:51:01;;;;;;;13.48;3.85;;;;;;;29.85;57.58;101056.16;8390728;28;20028;-63
2023/08/22 09:55:03;;;;;;;10.23;2.30;;;;;;;29.79;56.81;101040.44;8390727;28;20154;-63
2023/08/22 09:59:04;;;;;;;8.70;2.20;;;;;;;29.64;56.93;101042.97;8390299;28;20090;-63
2023/08/22 10:03:06;;;;;;;8.82;2.22;;;;;;;29.75;57.56;101044.84;8388928;28;20044;-63
2023/08/22 10:07:08;;;;;;;9.75;3.47;;;;;;;30.57;57.20;101045.84;8390229;28;20453;-63
2023/08/22 10:11:11;;;;;;;9.43;2.78;;;;;;;31.29;56.72;101040.94;8389773;28;20105;-62
2023/08/22 10:15:15;;;;;;;4.57;2.70;;;;;;;31.76;56.60;101050.31;8385943;28;20452;-61
2023/08/22 10:19:19;;;;;;;8.57;2.17;;;;;;;34.09;49.79;101044.31;8390446;28;20048;-63
2023/08/22 10:23:55;;;;;;;12.30;2.72;;;;;;;33.48;50.01;101028.63;8389060;28;20045;-63
2023/08/22 10:28:03;;;;;;;7.97;2.80;;;;;;;31.95;52.80;101023.63;8386282;28;20043;-63
2023/08/22 10:36:17;;;;;;;11.20;2.75;;;;;;;34.05;51.32;101023.56;8395815;27;20924;-65
2023/08/22 10:40:24;;;;;;;8.35;2.40;;;;;;;33.71;49.27;101022.44;8395827;27;20402;-65
2023/08/22 10:44:30;;;;;;;14.27;2.85;;;;;;;32.56;51.77;101025.72;8400770;27;20115;-65
2023/08/22 10:48:30;;;;;;;7.22;3.10;;;;;;;32.27;53.52;101021.63;8402130;27;20087;-65
2023/08/22 10:52:36;;;;;;;6.90;2.85;;;;;;;31.09;54.27;101030.34;8402378;27;20166;-64
2023/08/22 10:56:36;;;;;;;10.43;2.88;;;;;;;30.48;56.47;101032.59;8402425;27;20124;-58
2023/08/22 11:00:39;;;;;;;6.93;3.22;;;;;;;29.71;57.50;101026.97;8398315;27;20490;-58
2023/08/22 11:04:41;;;;;;;8.02;2.92;;;;;;;29.81;57.89;101027.13;8401459;27;20561;-58
2023/08/22 11:08:43;;;;;;;6.97;2.63;;;;;;;29.61;57.68;101026.72;8400371;27;20478;-57
2023/08/22 11:12:45;;;;;;;7.88;2.67;;;;;;;29.60;57.85;101025.06;8399116;27;20143;-59
2023/08/22 11:16:45;;;;;;;8.63;2.80;;;;;;;29.80;56.94;101013.44;8401233;27;20071;-58
2023/08/22 11:20:53;;;;;;;8.68;3.67;;;;;;;30.16;57.76;101013.69;8401090;27;20085;-58
2023/08/22 11:24:54;;;;;;;7.72;3.30;;;;;;;30.13;56.61;101017.00;8402249;27;20040;-58
2023/08/22 11:28:55;;;;;;;6.53;2.83;;;;;;;30.57;58.43;101023.53;8400474;27;20041;-58
2023/08/22 11:32:56;;;;;;;9.48;3.35;;;;;;;30.85;55.45;101022.50;8397855;27;20067;-58
2023/08/22 11:36:57;;;;;;;11.63;3.58;;;;;;;31.92;52.84;101024.19;8396653;27;20045;-60
2023/08/22 11:40:58;;;;;;;9.20;3.38;;;;;;;31.32;54.05;101024.44;8400093;27;20036;-57
2023/08/22 11:49:13;;;;;;;8.45;2.60;;;;;;;35.24;47.38;101021.47;8340033;27;20457;-59
2023/08/22 11:53:15;;;;;;;4.90;2.25;;;;;;;34.60;47.31;101019.78;8336179;28;20041;-60
2023/08/22 11:57:16;;;;;;;8.80;2.35;;;;;;;35.95;48.35;101024.63;8331182;28;20120;-60
2023/08/22 12:01:23;;;;;;;6.50;2.42;;;;;;;33.34;49.31;101022.66;8331621;28;20033;-62
2023/08/22 12:05:40;;;;;;;10.20;3.17;;;;;;;31.45;52.87;101032.44;8333799;28;20037;-60
2023/08/22 12:09:56;;;;;;;7.47;2.83;;;;;;;31.54;55.32;101016.88;8331792;28;20510;-60
2023/08/22 12:13:56;;;;;;;11.15;2.67;;;;;;;31.64;55.98;101025.34;8331683;28;20030;-61
2023/08/22 12:17:58;;;;;;;11.25;2.70;;;;;;;32.04;54.11;101034.06;8331360;28;20041;-61
2023/08/22 12:22:00;;;;;;;7.03;2.28;;;;;;;31.98;54.71;101026.75;8337959;28;20392;-60
2023/08/22 12:26:00;;;;;;;13.35;2.80;;;;;;;31.33;56.31;101033.69;8333535;28;20045;-61
2023/08/22 12:30:01;;;;;;;5.07;3.40;;;;;;;30.81;55.90;101022.19;8330891;28;20048;-61
2023/08/22 12:34:01;;;;;;;10.43;3.22;;;;;;;30.76;54.00;101029.69;8332116;28;20739;-61
2023/08/22 12:38:03;;;;;;;4.63;2.65;;;;;;;30.33;55.07;101020.13;8332899;28;20132;-61
2023/08/22 12:42:03;;;;;;;7.10;2.78;;;;;;;30.41;56.69;101022.47;8332797;28;20418;-61
2023/08/22 12:46:04;;;;;;;9.27;3.22;;;;;;;29.85;55.35;101011.56;8334132;28;20084;-60
2023/08/22 12:50:05;;;;;;;10.38;2.90;;;;;;;30.32;57.09;101018.47;8333579;28;20037;-60
2023/08/22 12:54:06;;;;;;;6.53;2.50;;;;;;;30.84;56.60;101020.81;8333463;28;20501;-61
2023/08/22 12:58:06;;;;;;;7.97;2.90;;;;;;;30.44;54.61;101027.53;8324984;28;20108;-60
2023/08/22 13:02:07;;;;;;;7.68;1.77;;;;;;;29.88;54.49;101019.41;8308643;28;20037;-60
2023/08/22 13:06:07;;;;;;;6.13;1.52;;;;;;;29.60;53.16;101013.03;8304843;28;20045;-60
2023/08/22 13:10:08;;;;;;;4.72;1.17;;;;;;;29.28;54.70;101009.13;8311680;28;20042;-61
2023/08/22 13:14:09;;;;;;;3.53;1.73;;;;;;;29.44;54.41;100998.03;8311804;28;20025;-66
2023/08/22 13:18:09;;;;;;;7.22;2.17;;;;;;;29.88;55.95;100997.09;8309761;28;20053;-66
2023/08/22 13:22:10;;;;;;;7.40;1.70;;;;;;;29.95;52.71;100991.34;8309552;28;20049;-65
2023/08/22 13:26:10;;;;;;;7.00;1.30;;;;;;;29.81;53.48;100990.88;8311823;28;20046;-65
2023/08/22 13:30:11;;;;;;;4.83;1.27;;;;;;;29.62;54.14;100986.66;8306714;28;20041;-65
2023/08/22 13:34:12;;;;;;;6.88;1.48;;;;;;;29.39;53.78;100983.16;8300850;28;20288;-64
2023/08/22 13:38:12;;;;;;;3.58;0.98;;;;;;;29.40;54.41;100991.22;8306635;28;20038;-65
2023/08/22 13:42:12;;;;;;;5.00;1.20;;;;;;;29.83;54.32;100991.47;8301624;28;20490;-65
2023/08/22 13:46:13;;;;;;;5.80;1.37;;;;;;;29.81;53.23;100981.66;8307381;28;20400;-65
2023/08/22 13:50:13;;;;;;;2.50;1.02;;;;;;;30.18;53.38;100994.81;8306769;28;20750;-65
2023/08/22 13:54:16;;;;;;;6.32;1.20;;;;;;;30.22;52.41;100983.97;8307913;28;20041;-65
2023/08/22 13:58:17;;;;;;;4.43;1.23;;;;;;;30.03;53.36;100979.75;8305626;28;20037;-65
2023/08/22 14:02:17;;;;;;;5.45;1.20;;;;;;;29.99;54.60;100986.94;8303606;28;20551;-65
2023/08/22 14:06:18;;;;;;;2.60;1.17;;;;;;;29.90;53.33;100980.97;8306923;28;20041;-65
2023/08/22 14:10:23;;;;;;;4.47;1.23;;;;;;;29.75;50.98;100977.94;8288603;28;20518;-65
2023/08/22 14:14:24;;;;;;;5.30;1.08;;;;;;;29.39;51.38;100978.41;8307980;28;20117;-65
2023/08/22 14:18:24;;;;;;;2.03;0.98;;;;;;;29.58;51.04;100984.59;8304643;28;20893;-66
2023/08/22 14:22:25;;;;;;;3.13;1.00;;;;;;;29.80;54.02;100972.44;8306230;28;20087;-65
2023/08/22 14:26:25;;;;;;;4.70;1.00;;;;;;;29.58;50.58;100988.22;8303404;28;20292;-60
2023/08/22 14:30:25;;;;;;;6.63;1.42;;;;;;;29.24;52.14;100983.72;8304120;28;20037;-63
2023/08/22 14:34:26;;;;;;;2.38;0.85;;;;;;;29.31;52.08;100987.22;8288831;28;20132;-60
2023/08/22 14:38:26;;;;;;;4.82;0.98;;;;;;;29.84;52.95;100982.00;8294032;28;20132;-57
2023/08/22 14:42:27;;;;;;;2.20;0.68;;;;;;;30.15;51.97;100995.28;8304672;28;20414;-59
2023/08/22 14:46:27;;;;;;;1.90;1.10;;;;;;;30.06;51.92;100968.94;8305513;28;20053;-59
2023/08/22 14:50:28;;;;;;;1.52;0.80;;;;;;;29.87;51.96;100981.47;8302566;28;20049;-61
2023/08/22 14:54:28;;;;;;;3.00;1.13;;;;;;;29.82;51.62;100988.94;8301694;28;20044;-57
2023/08/22 14:58:45;;;;;;;4.22;1.10;;;;;;;29.91;52.64;100977.06;8305612;28;20462;-61
2023/08/22 15:02:46;;;;;;;2.75;1.15;;;;;;;29.56;53.01;100970.91;8306354;28;20038;-61
2023/08/22 15:06:46;;;;;;;2.35;0.98;;;;;;;29.37;54.29;100979.78;8303949;28;20052;-63
2023/08/22 15:10:50;;;;;;;2.45;0.90;;;;;;;29.47;54.56;100979.94;8314811;28;20041;-63
2023/08/22 15:14:50;;;;;;;2.28;0.80;;;;;;;29.25;53.08;100982.63;8319073;28;20041;-60
2023/08/22 15:18:51;;;;;;;2.60;0.95;;;;;;;29.36;52.46;100973.34;8303105;28;20251;-61
2023/08/22 15:22:52;;;;;;;4.65;1.00;;;;;;;29.37;54.24;100972.25;8280554;28;20052;-60
2023/08/22 15:26:52;;;;;;;4.30;0.98;;;;;;;29.32;52.48;100958.22;8294261;28;20492;-62
2023/08/22 15:30:58;;;;;;;2.85;0.93;;;;;;;28.98;52.96;100961.19;8294153;28;20096;-61
2023/08/22 15:34:59;;;;;;;2.95;1.27;;;;;;;28.91;54.21;100952.16;8302946;28;20121;-61
2023/08/22 15:39:00;;;;;;;1.88;0.90;;;;;;;29.23;54.04;100958.88;8288961;28;20045;-61
2023/08/22 15:43:00;;;;;;;2.65;0.73;;;;;;;29.55;51.70;100960.00;8286622;28;20045;-61
2023/08/22 15:47:01;;;;;;;5.10;1.10;;;;;;;29.82;53.00;100967.44;8299492;28;20045;-62
2023/08/22 15:51:01;;;;;;;2.20;1.05;;;;;;;29.55;52.28;100960.84;8275028;28;20265;-60
2023/08/22 15:55:02;;;;;;;6.35;1.10;;;;;;;29.41;50.98;100948.34;8270927;28;20054;-62
2023/08/22 15:59:03;;;;;;;8.18;1.42;;;;;;;29.29;52.91;100953.16;8268489;28;20509;-61
2023/08/22 16:03:04;;;;;;;3.53;1.10;;;;;;;29.16;51.95;100950.72;8266664;28;20045;-61
2023/08/22 16:07:05;;;;;;;6.32;1.65;;;;;;;28.94;54.30;100946.91;8294296;28;20107;-60
2023/08/22 16:11:05;;;;;;;5.93;1.73;;;;;;;28.81;55.22;100958.34;8304234;28;20045;-60
2023/08/22 16:15:06;;;;;;;4.28;1.10;;;;;;;28.85;56.68;100959.56;8303563;28;20546;-60
2023/08/22 16:19:07;;;;;;;3.70;1.33;;;;;;;28.54;58.74;100943.34;8306810;28;20037;-60
2023/08/22 16:23:07;;;;;;;5.10;1.58;;;;;;;28.40;58.60;100956.69;8302460;28;20098;-62
2023/08/22 16:27:08;;;;;;;4.32;1.40;;;;;;;28.29;59.49;100959.47;8316201;28;20081;-62
2023/08/22 16:31:09;;;;;;;3.85;1.73;;;;;;;28.20;59.57;100949.81;8288105;28;20042;-62
2023/08/22 16:35:10;;;;;;;4.38;2.30;;;;;;;28.22;59.33;100945.72;8265436;28;20041;-62
2023/08/22 16:39:13;;;;;;;3.10;1.27;;;;;;;28.29;59.74;100953.91;8308397;28;20444;-61
2023/08/22 16:43:13;;;;;;;5.90;1.58;;;;;;;28.27;60.08;100950.56;8304984;28;20176;-61
2023/08/22 16:47:14;;;;;;;7.75;1.60;;;;;;;28.15;60.08;100942.22;8305865;28;20042;-62
2023/08/22 16:51:15;;;;;;;4.75;1.50;;;;;;;28.04;60.25;100953.34;8306677;28;20041;-61
2023/08/22 16:55:15;;;;;;;4.25;1.30;;;;;;;28.02;60.66;100950.81;8306426;28;20446;-61
2023/08/22 16:59:16;;;;;;;13.95;1.63;;;;;;;27.91;60.62;100945.28;8302480;28;20042;-62
2023/08/22 17:03:16;;;;;;;4.47;1.65;;;;;;;27.89;61.52;100947.44;8297674;28;20053;-62
2023/08/22 17:07:17;;;;;;;5.38;1.40;;;;;;;27.75;61.61;100951.56;8300609;28;20491;-62
2023/08/22 17:11:17;;;;;;;5.53;1.80;;;;;;;27.76;61.51;100953.22;8305209;28;20042;-62
2023/08/22 17:15:19;;;;;;;4.28;1.50;;;;;;;27.74;61.78;100944.28;8303605;28;20362;-62
2023/08/22 17:19:19;;;;;;;4.00;1.27;;;;;;;27.81;61.48;100945.03;8305567;28;20038;-62
2023/08/22 17:23:20;;;;;;;5.05;1.42;;;;;;;27.83;61.66;100953.94;8309856;28;20045;-61
2023/08/22 17:27:20;;;;;;;5.15;1.60;;;;;;;27.75;61.31;100946.00;8307304;28;20069;-61
2023/08/22 17:31:22;;;;;;;4.65;1.42;;;;;;;27.71;62.00;100944.75;8302091;28;20423;-62
2023/08/22 17:35:23;;;;;;;4.43;1.40;;;;;;;27.65;61.95;100940.16;8306509;28;20049;-61
2023/08/22 17:39:23;;;;;;;4.60;1.60;;;;;;;27.70;61.92;100931.97;8306738;28;20392;-61
2023/08/22 17:43:24;;;;;;;8.55;1.88;;;;;;;27.58;61.90;100936.66;8302089;28;20065;-61
2023/08/22 17:47:24;;;;;;;5.72;1.25;;;;;;;27.50;62.33;100931.50;8307192;28;20042;-61
2023/08/22 17:51:24;;;;;;;3.53;1.13;;;;;;;27.69;62.33;100941.41;8308219;28;20044;-60
2023/08/22 17:55:25;;;;;;;4.55;1.50;;;;;;;27.48;63.27;100933.66;8306894;28;20119;-62
2023/08/22 17:59:26;;;;;;;3.33;1.20;;;;;;;27.23;63.41;100930.22;8318579;28;20033;-63
2023/08/22 18:03:28;;;;;;;2.70;1.48;;;;;;;27.10;63.76;100947.06;8300050;28;20062;-63
2023/08/22 18:07:28;;;;;;;5.70;1.30;;;;;;;26.98;64.13;100949.00;8306553;28;20495;-64
2023/08/22 18:11:29;;;;;;;4.13;1.13;;;;;;;26.88;64.36;100951.47;8305956;28;20045;-64
2023/08/22 18:15:29;;;;;;;3.08;1.13;;;;;;;26.76;64.36;100963.41;8304057;28;20037;-65
2023/08/22 18:19:30;;;;;;;4.93;1.40;;;;;;;26.64;64.92;100959.72;8303837;28;20234;-65
2023/08/22 18:23:31;;;;;;;2.67;1.30;;;;;;;26.48;64.98;100959.50;8296850;28;20037;-65
2023/08/22 18:27:32;;;;;;;4.68;1.13;;;;;;;26.39;65.91;100967.28;8304522;28;20049;-64
2023/08/22 18:31:33;;;;;;;2.90;1.40;;;;;;;26.11;69.23;100969.78;8310445;28;20068;-64
2023/08/22 18:35:42;;;;;;;7.30;2.05;;;;;;;25.67;70.86;100972.75;8324244;28;20037;-61
2023/08/22 18:39:43;;;;;;;11.80;2.72;;;;;;;24.94;76.43;100967.97;8308260;28;20038;-60
2023/08/22 18:43:47;;;;;;;5.18;1.63;;;;;;;25.19;71.19;100974.44;8313462;28;20399;-59